Language selection

My Weather Profile Weather Topics  | 

Atlantic - Newfoundland: Past 24 Hour Conditions

 

St. Anthony Airport

11:30 PM NDT 22 September 2021
Disclaimer

This table is a summary of hourly weather conditions for the past 24 hours.
Please note that these observations might not always be representative of weather conditions over their associated marine area.

Date / Time
(NDT)
Wind(knots) Conditions Visibility(km) Pressure(kPa) Air tempC) Relative humidity(%) Dew pointC)
22 September 2021
23:30 WSW 17 gust 23 Cloudy 16 101.7 14 90 12
22:30 SW 14 gust 21 Cloudy 16 101.7 14 90 12
21:30 WSW 12 gust 18 Mostly Cloudy 16 101.7 14 90 12
20:30 WSW 17 gust 30 Clear 16 101.6 14 89 12
19:30 WSW 23 gust 32 Clear 16 101.5 14 87 12
18:30 WSW 20 gust 30 Sunny 16 101.5 15 81 12
17:30 WSW 27 gust 37 Mostly Cloudy 16 101.5 17 74 12
16:30 WSW 23 gust 30 Sunny 16 101.5 18 70 12
15:30 SW 15 gust 25 Sunny 16 101.5 17 72 12
14:30 SW 24 gust 31 Sunny 16 101.6 18 68 12
13:30 SW 20 gust 33 Mainly Sunny 16 101.6 17 75 12
12:30 SW 24 gust 31 Cloudy 16 101.7 16 79 12
11:30 SW 20 gust 32 Mostly Cloudy 16 101.7 16 77 12
10:30 SW 18 gust 27 Mostly Cloudy 16 101.7 16 80 12
9:30 SW 22 gust 31 Sunny 16 101.8 16 75 12
8:30 SW 20 Sunny 16 101.8 16 74 11
7:30 SW 16 gust 22 Sunny 16 101.8 14 78 10
6:30 WSW 23 gust 31 Clear 16 101.8 14 78 10
5:30 WSW 25 gust 33 Clear 16 101.7 14 78 10
4:30 WSW 21 gust 29 Clear 16 101.8 14 79 11
3:30 WSW 22 gust 29 Clear 16 101.8 14 78 11
2:30 WSW 23 gust 32 Clear 16 101.9 14 78 10
1:30 WSW 23 gust 32 Clear 16 101.9 14 79 11
0:30 WSW 21 gust 30 Clear 16 101.9 15 76 10
21 September 2021
23:30 SW 26 gust 35 Clear 16 102.0 15 78 11

Zoom-in to make a selection

Map of Atlantic - Newfoundland marine weather areas Banquereau - 44139 East Chedabucto Bay - 44488 West Chedabucto Bay - 44489 Blanc-Sablon Airport Cap Whittle Chevery Natashquan Airport Heath Point Îles de la Madeleine Airport Miscou Island Eskasoni (First Nations) Grand Étang Ingonish Beach North Mountain St.Paul Island J.A. Douglas McCurdy Sydney Airport Charlottetown Airport East Point North Cape Argentia Bonavista Burgeo Cape Race Corner Brook Daniel's Harbour Englee Ferolle Point La Scie Port aux Basques Rocky Harbour Sagona Island St. Anthony Airport St. John's Int'l Airport St. Lawrence Stephenville Airport Twillingate Winterland Branch Hill Wreckhouse Grates Cove Pool's Island Marticot Island Long Pond Cartwright Airport Mary's Harbour
Legend:
buoy Buoy
land station Land Station

Atlantic - Newfoundland Area

Another Region

What we are doing

Date modified: